sensor_id;sensor_type;location;lat;lon;timestamp;P1;durP1;ratioP1;P2;durP2;ratioP2
17796;SDS011;55596;53.554;9.916;2023-08-17T00:03:37;6.13;;;1.80;;
17796;SDS011;55596;53.554;9.916;2023-08-17T00:06:04;6.97;;;2.47;;
17796;SDS011;55596;53.554;9.916;2023-08-17T00:08:32;4.20;;;1.50;;
17796;SDS011;55596;53.554;9.916;2023-08-17T00:10:59;5.03;;;2.40;;
17796;SDS011;55596;53.554;9.916;2023-08-17T00:13:26;5.47;;;1.63;;
17796;SDS011;55596;53.554;9.916;2023-08-17T00:15:54;5.43;;;1.63;;
17796;SDS011;55596;53.554;9.916;2023-08-17T00:18:23;4.47;;;1.40;;
17796;SDS011;55596;53.554;9.916;2023-08-17T00:20:51;5.00;;;1.63;;
17796;SDS011;55596;53.554;9.916;2023-08-17T00:23:19;3.40;;;1.27;;
17796;SDS011;55596;53.554;9.916;2023-08-17T00:25:47;5.97;;;1.40;;
17796;SDS011;55596;53.554;9.916;2023-08-17T00:28:14;4.60;;;1.37;;
17796;SDS011;55596;53.554;9.916;2023-08-17T00:30:46;3.93;;;1.27;;
17796;SDS011;55596;53.554;9.916;2023-08-17T00:33:13;6.47;;;1.73;;
17796;SDS011;55596;53.554;9.916;2023-08-17T00:35:42;6.20;;;1.77;;
17796;SDS011;55596;53.554;9.916;2023-08-17T00:38:29;5.90;;;1.70;;
17796;SDS011;55596;53.554;9.916;2023-08-17T00:41:10;7.10;;;1.73;;
17796;SDS011;55596;53.554;9.916;2023-08-17T00:43:40;9.43;;;2.93;;
17796;SDS011;55596;53.554;9.916;2023-08-17T00:46:10;7.20;;;1.97;;
17796;SDS011;55596;53.554;9.916;2023-08-17T00:48:51;8.00;;;2.23;;
17796;SDS011;55596;53.554;9.916;2023-08-17T00:51:20;5.60;;;1.60;;
17796;SDS011;55596;53.554;9.916;2023-08-17T00:53:50;4.77;;;1.90;;
17796;SDS011;55596;53.554;9.916;2023-08-17T00:56:18;7.40;;;1.73;;
17796;SDS011;55596;53.554;9.916;2023-08-17T00:58:45;7.23;;;1.80;;
17796;SDS011;55596;53.554;9.916;2023-08-17T01:01:20;6.07;;;1.80;;
17796;SDS011;55596;53.554;9.916;2023-08-17T01:03:53;4.80;;;1.70;;
17796;SDS011;55596;53.554;9.916;2023-08-17T01:06:21;4.73;;;1.80;;
17796;SDS011;55596;53.554;9.916;2023-08-17T01:08:49;8.70;;;1.63;;
17796;SDS011;55596;53.554;9.916;2023-08-17T01:11:20;9.23;;;1.70;;
17796;SDS011;55596;53.554;9.916;2023-08-17T01:13:50;7.07;;;1.77;;
17796;SDS011;55596;53.554;9.916;2023-08-17T01:16:21;9.03;;;1.70;;
17796;SDS011;55596;53.554;9.916;2023-08-17T01:19:06;5.27;;;1.57;;
17796;SDS011;55596;53.554;9.916;2023-08-17T01:21:35;7.93;;;1.60;;
17796;SDS011;55596;53.554;9.916;2023-08-17T01:24:06;6.87;;;1.70;;
17796;SDS011;55596;53.554;9.916;2023-08-17T01:26:33;5.90;;;1.50;;
17796;SDS011;55596;53.554;9.916;2023-08-17T01:29:03;7.37;;;1.70;;
17796;SDS011;55596;53.554;9.916;2023-08-17T01:31:30;6.57;;;1.37;;
17796;SDS011;55596;53.554;9.916;2023-08-17T01:34:02;7.03;;;1.90;;
17796;SDS011;55596;53.554;9.916;2023-08-17T01:36:32;5.33;;;1.53;;
17796;SDS011;55596;53.554;9.916;2023-08-17T01:39:00;3.63;;;1.03;;
17796;SDS011;55596;53.554;9.916;2023-08-17T01:41:30;4.73;;;1.70;;
17796;SDS011;55596;53.554;9.916;2023-08-17T01:43:58;5.80;;;1.70;;
17796;SDS011;55596;53.554;9.916;2023-08-17T01:46:29;2.37;;;1.33;;
17796;SDS011;55596;53.554;9.916;2023-08-17T01:48:57;8.57;;;1.60;;
17796;SDS011;55596;53.554;9.916;2023-08-17T01:51:25;3.57;;;1.30;;
17796;SDS011;55596;53.554;9.916;2023-08-17T01:53:52;5.13;;;1.63;;
17796;SDS011;55596;53.554;9.916;2023-08-17T01:56:19;3.13;;;1.40;;
17796;SDS011;55596;53.554;9.916;2023-08-17T01:58:48;3.90;;;1.40;;
17796;SDS011;55596;53.554;9.916;2023-08-17T02:01:15;7.60;;;1.70;;
17796;SDS011;55596;53.554;9.916;2023-08-17T02:03:43;6.57;;;2.13;;
17796;SDS011;55596;53.554;9.916;2023-08-17T02:06:11;6.30;;;1.80;;
17796;SDS011;55596;53.554;9.916;2023-08-17T02:08:38;5.53;;;1.40;;
17796;SDS011;55596;53.554;9.916;2023-08-17T02:11:05;5.00;;;1.90;;
17796;SDS011;55596;53.554;9.916;2023-08-17T02:13:32;5.67;;;1.60;;
17796;SDS011;55596;53.554;9.916;2023-08-17T02:16:00;8.67;;;1.50;;
17796;SDS011;55596;53.554;9.916;2023-08-17T02:18:28;5.10;;;1.40;;
17796;SDS011;55596;53.554;9.916;2023-08-17T02:20:57;3.57;;;1.50;;
17796;SDS011;55596;53.554;9.916;2023-08-17T02:23:24;4.40;;;1.50;;
17796;SDS011;55596;53.554;9.916;2023-08-17T02:25:51;7.67;;;1.60;;
17796;SDS011;55596;53.554;9.916;2023-08-17T02:28:18;6.47;;;1.43;;
17796;SDS011;55596;53.554;9.916;2023-08-17T02:30:45;6.97;;;1.63;;
17796;SDS011;55596;53.554;9.916;2023-08-17T02:33:14;12.20;;;2.13;;
17796;SDS011;55596;53.554;9.916;2023-08-17T02:35:41;3.10;;;1.40;;
17796;SDS011;55596;53.554;9.916;2023-08-17T02:38:08;6.23;;;1.80;;
17796;SDS011;55596;53.554;9.916;2023-08-17T02:40:35;5.43;;;1.40;;
17796;SDS011;55596;53.554;9.916;2023-08-17T02:43:02;3.70;;;1.60;;
17796;SDS011;55596;53.554;9.916;2023-08-17T02:45:30;10.87;;;1.87;;
17796;SDS011;55596;53.554;9.916;2023-08-17T02:47:57;6.30;;;1.67;;
17796;SDS011;55596;53.554;9.916;2023-08-17T02:50:25;4.83;;;1.53;;
17796;SDS011;55596;53.554;9.916;2023-08-17T02:52:52;6.00;;;1.70;;
17796;SDS011;55596;53.554;9.916;2023-08-17T02:55:20;5.10;;;1.63;;
17796;SDS011;55596;53.554;9.916;2023-08-17T02:57:47;6.47;;;1.50;;
17796;SDS011;55596;53.554;9.916;2023-08-17T03:00:14;6.90;;;1.70;;
17796;SDS011;55596;53.554;9.916;2023-08-17T03:02:41;6.63;;;1.90;;
17796;SDS011;55596;53.554;9.916;2023-08-17T03:05:08;4.90;;;1.60;;
17796;SDS011;55596;53.554;9.916;2023-08-17T03:07:37;4.93;;;1.47;;
17796;SDS011;55596;53.554;9.916;2023-08-17T03:10:04;4.50;;;1.43;;
17796;SDS011;55596;53.554;9.916;2023-08-17T03:12:32;3.73;;;1.17;;
17796;SDS011;55596;53.554;9.916;2023-08-17T03:14:59;5.93;;;1.47;;
17796;SDS011;55596;53.554;9.916;2023-08-17T03:17:26;6.07;;;1.50;;
17796;SDS011;55596;53.554;9.916;2023-08-17T03:19:53;6.87;;;1.77;;
17796;SDS011;55596;53.554;9.916;2023-08-17T03:22:20;4.27;;;1.50;;
17796;SDS011;55596;53.554;9.916;2023-08-17T03:24:48;3.97;;;1.20;;
17796;SDS011;55596;53.554;9.916;2023-08-17T03:27:16;2.77;;;1.40;;
17796;SDS011;55596;53.554;9.916;2023-08-17T03:29:43;4.70;;;1.43;;
17796;SDS011;55596;53.554;9.916;2023-08-17T03:32:10;4.37;;;1.57;;
17796;SDS011;55596;53.554;9.916;2023-08-17T03:34:37;3.37;;;1.57;;
17796;SDS011;55596;53.554;9.916;2023-08-17T03:37:05;4.63;;;1.50;;
17796;SDS011;55596;53.554;9.916;2023-08-17T03:39:32;6.33;;;1.77;;
17796;SDS011;55596;53.554;9.916;2023-08-17T03:42:00;3.23;;;1.17;;
17796;SDS011;55596;53.554;9.916;2023-08-17T03:44:28;2.60;;;1.30;;
17796;SDS011;55596;53.554;9.916;2023-08-17T03:46:55;4.00;;;1.43;;
17796;SDS011;55596;53.554;9.916;2023-08-17T03:49:22;7.50;;;1.67;;
17796;SDS011;55596;53.554;9.916;2023-08-17T03:51:49;4.90;;;1.73;;
17796;SDS011;55596;53.554;9.916;2023-08-17T03:54:16;5.30;;;1.37;;
17796;SDS011;55596;53.554;9.916;2023-08-17T03:56:45;2.43;;;1.50;;
17796;SDS011;55596;53.554;9.916;2023-08-17T03:59:13;5.43;;;1.53;;
17796;SDS011;55596;53.554;9.916;2023-08-17T04:01:40;4.37;;;1.47;;
17796;SDS011;55596;53.554;9.916;2023-08-17T04:04:09;4.03;;;1.50;;
17796;SDS011;55596;53.554;9.916;2023-08-17T04:06:36;5.77;;;1.50;;
17796;SDS011;55596;53.554;9.916;2023-08-17T04:09:04;4.10;;;1.60;;
17796;SDS011;55596;53.554;9.916;2023-08-17T04:11:33;3.13;;;1.50;;
17796;SDS011;55596;53.554;9.916;2023-08-17T04:14:01;4.80;;;1.70;;
17796;SDS011;55596;53.554;9.916;2023-08-17T04:16:30;6.30;;;1.60;;
17796;SDS011;55596;53.554;9.916;2023-08-17T04:18:57;4.63;;;1.60;;
17796;SDS011;55596;53.554;9.916;2023-08-17T04:21:24;3.13;;;1.40;;
17796;SDS011;55596;53.554;9.916;2023-08-17T04:23:51;6.13;;;1.70;;
17796;SDS011;55596;53.554;9.916;2023-08-17T04:26:18;3.37;;;1.60;;
17796;SDS011;55596;53.554;9.916;2023-08-17T04:28:45;6.87;;;1.60;;
17796;SDS011;55596;53.554;9.916;2023-08-17T04:31:13;3.53;;;1.43;;
17796;SDS011;55596;53.554;9.916;2023-08-17T04:33:43;4.80;;;1.70;;
17796;SDS011;55596;53.554;9.916;2023-08-17T04:36:10;6.10;;;1.90;;
17796;SDS011;55596;53.554;9.916;2023-08-17T04:38:37;6.87;;;1.83;;
17796;SDS011;55596;53.554;9.916;2023-08-17T04:41:04;4.53;;;1.77;;
17796;SDS011;55596;53.554;9.916;2023-08-17T04:43:32;5.43;;;1.70;;
17796;SDS011;55596;53.554;9.916;2023-08-17T04:45:59;3.50;;;1.93;;
17796;SDS011;55596;53.554;9.916;2023-08-17T04:48:26;7.97;;;1.83;;
17796;SDS011;55596;53.554;9.916;2023-08-17T04:50:55;5.30;;;1.60;;
17796;SDS011;55596;53.554;9.916;2023-08-17T04:53:22;7.17;;;1.53;;
17796;SDS011;55596;53.554;9.916;2023-08-17T04:55:49;4.73;;;1.90;;
17796;SDS011;55596;53.554;9.916;2023-08-17T04:58:16;4.50;;;1.83;;
17796;SDS011;55596;53.554;9.916;2023-08-17T05:00:43;7.40;;;1.87;;
17796;SDS011;55596;53.554;9.916;2023-08-17T05:03:10;5.50;;;1.87;;
17796;SDS011;55596;53.554;9.916;2023-08-17T05:05:37;6.97;;;2.07;;
17796;SDS011;55596;53.554;9.916;2023-08-17T05:08:06;8.90;;;2.30;;
17796;SDS011;55596;53.554;9.916;2023-08-17T05:10:34;7.67;;;2.10;;
17796;SDS011;55596;53.554;9.916;2023-08-17T05:13:01;5.57;;;2.00;;
17796;SDS011;55596;53.554;9.916;2023-08-17T05:15:29;3.33;;;1.70;;
17796;SDS011;55596;53.554;9.916;2023-08-17T05:17:59;5.07;;;2.03;;
17796;SDS011;55596;53.554;9.916;2023-08-17T05:20:26;4.93;;;1.87;;
17796;SDS011;55596;53.554;9.916;2023-08-17T05:22:54;5.43;;;2.23;;
17796;SDS011;55596;53.554;9.916;2023-08-17T05:25:22;5.60;;;1.97;;
17796;SDS011;55596;53.554;9.916;2023-08-17T05:27:51;8.17;;;2.10;;
17796;SDS011;55596;53.554;9.916;2023-08-17T05:30:19;6.43;;;2.10;;
17796;SDS011;55596;53.554;9.916;2023-08-17T05:32:46;5.40;;;2.50;;
17796;SDS011;55596;53.554;9.916;2023-08-17T05:35:13;9.63;;;2.97;;
17796;SDS011;55596;53.554;9.916;2023-08-17T05:37:40;10.07;;;2.27;;
17796;SDS011;55596;53.554;9.916;2023-08-17T05:40:08;7.37;;;2.50;;
17796;SDS011;55596;53.554;9.916;2023-08-17T05:42:38;7.07;;;2.83;;
17796;SDS011;55596;53.554;9.916;2023-08-17T05:45:06;10.93;;;3.03;;
17796;SDS011;55596;53.554;9.916;2023-08-17T05:47:33;8.60;;;2.70;;
17796;SDS011;55596;53.554;9.916;2023-08-17T05:50:00;7.83;;;2.87;;
17796;SDS011;55596;53.554;9.916;2023-08-17T05:52:27;8.47;;;3.50;;
17796;SDS011;55596;53.554;9.916;2023-08-17T05:54:55;7.97;;;3.27;;
17796;SDS011;55596;53.554;9.916;2023-08-17T05:57:22;8.10;;;3.47;;
17796;SDS011;55596;53.554;9.916;2023-08-17T05:59:50;14.13;;;3.87;;
17796;SDS011;55596;53.554;9.916;2023-08-17T06:02:17;9.60;;;3.80;;
17796;SDS011;55596;53.554;9.916;2023-08-17T06:04:46;12.37;;;3.97;;
17796;SDS011;55596;53.554;9.916;2023-08-17T06:07:14;12.70;;;3.83;;
17796;SDS011;55596;53.554;9.916;2023-08-17T06:09:41;10.63;;;4.60;;
17796;SDS011;55596;53.554;9.916;2023-08-17T06:12:08;14.40;;;4.50;;
17796;SDS011;55596;53.554;9.916;2023-08-17T06:14:35;11.87;;;4.43;;
17796;SDS011;55596;53.554;9.916;2023-08-17T06:17:04;10.17;;;5.23;;
17796;SDS011;55596;53.554;9.916;2023-08-17T06:19:31;11.80;;;4.80;;
17796;SDS011;55596;53.554;9.916;2023-08-17T06:21:58;18.60;;;5.30;;
17796;SDS011;55596;53.554;9.916;2023-08-17T06:24:26;11.87;;;4.93;;
17796;SDS011;55596;53.554;9.916;2023-08-17T06:26:53;15.00;;;5.33;;
17796;SDS011;55596;53.554;9.916;2023-08-17T06:29:20;17.47;;;6.50;;
17796;SDS011;55596;53.554;9.916;2023-08-17T06:31:48;15.70;;;6.33;;
17796;SDS011;55596;53.554;9.916;2023-08-17T06:34:16;14.43;;;5.87;;
17796;SDS011;55596;53.554;9.916;2023-08-17T06:36:43;16.43;;;6.20;;
17796;SDS011;55596;53.554;9.916;2023-08-17T06:39:23;19.43;;;6.43;;
17796;SDS011;55596;53.554;9.916;2023-08-17T06:41:50;12.10;;;6.13;;
17796;SDS011;55596;53.554;9.916;2023-08-17T06:44:17;13.93;;;6.60;;
17796;SDS011;55596;53.554;9.916;2023-08-17T06:46:44;14.13;;;6.90;;
17796;SDS011;55596;53.554;9.916;2023-08-17T06:49:11;13.63;;;6.40;;
17796;SDS011;55596;53.554;9.916;2023-08-17T06:51:40;15.77;;;7.20;;
17796;SDS011;55596;53.554;9.916;2023-08-17T06:54:07;14.10;;;6.70;;
17796;SDS011;55596;53.554;9.916;2023-08-17T06:56:35;15.27;;;6.37;;
17796;SDS011;55596;53.554;9.916;2023-08-17T06:59:02;15.93;;;7.47;;
17796;SDS011;55596;53.554;9.916;2023-08-17T07:01:29;18.07;;;7.33;;
17796;SDS011;55596;53.554;9.916;2023-08-17T07:03:56;14.00;;;6.53;;
17796;SDS011;55596;53.554;9.916;2023-08-17T07:06:23;19.20;;;7.60;;
17796;SDS011;55596;53.554;9.916;2023-08-17T07:08:52;17.80;;;7.27;;
17796;SDS011;55596;53.554;9.916;2023-08-17T07:11:19;15.07;;;6.97;;
17796;SDS011;55596;53.554;9.916;2023-08-17T07:13:46;14.97;;;7.47;;
17796;SDS011;55596;53.554;9.916;2023-08-17T07:16:13;14.00;;;7.07;;
17796;SDS011;55596;53.554;9.916;2023-08-17T07:18:40;13.90;;;7.50;;
17796;SDS011;55596;53.554;9.916;2023-08-17T07:21:08;15.73;;;6.73;;
17796;SDS011;55596;53.554;9.916;2023-08-17T07:23:35;12.63;;;6.70;;
17796;SDS011;55596;53.554;9.916;2023-08-17T07:26:04;15.80;;;7.20;;
17796;SDS011;55596;53.554;9.916;2023-08-17T07:28:31;16.87;;;6.73;;
17796;SDS011;55596;53.554;9.916;2023-08-17T07:30:58;20.43;;;6.50;;
17796;SDS011;55596;53.554;9.916;2023-08-17T07:33:25;15.67;;;7.17;;
17796;SDS011;55596;53.554;9.916;2023-08-17T07:35:52;14.90;;;6.50;;
17796;SDS011;55596;53.554;9.916;2023-08-17T07:38:21;8.47;;;5.93;;
17796;SDS011;55596;53.554;9.916;2023-08-17T07:40:48;14.87;;;6.20;;
17796;SDS011;55596;53.554;9.916;2023-08-17T07:43:16;8.63;;;5.30;;
17796;SDS011;55596;53.554;9.916;2023-08-17T07:45:43;7.53;;;4.40;;
17796;SDS011;55596;53.554;9.916;2023-08-17T07:48:10;9.23;;;5.23;;
17796;SDS011;55596;53.554;9.916;2023-08-17T07:50:37;15.83;;;5.50;;
17796;SDS011;55596;53.554;9.916;2023-08-17T07:53:05;11.20;;;5.43;;
17796;SDS011;55596;53.554;9.916;2023-08-17T07:55:32;8.23;;;4.63;;
17796;SDS011;55596;53.554;9.916;2023-08-17T07:57:59;8.53;;;4.50;;
17796;SDS011;55596;53.554;9.916;2023-08-17T08:00:27;8.57;;;4.73;;
17796;SDS011;55596;53.554;9.916;2023-08-17T08:02:54;8.80;;;4.37;;
17796;SDS011;55596;53.554;9.916;2023-08-17T08:05:22;7.93;;;4.73;;
17796;SDS011;55596;53.554;9.916;2023-08-17T08:07:49;7.27;;;4.03;;
17796;SDS011;55596;53.554;9.916;2023-08-17T08:10:16;5.97;;;4.50;;
17796;SDS011;55596;53.554;9.916;2023-08-17T08:12:44;8.33;;;4.60;;
17796;SDS011;55596;53.554;9.916;2023-08-17T08:15:11;10.00;;;4.90;;
17796;SDS011;55596;53.554;9.916;2023-08-17T08:17:39;11.60;;;5.23;;
17796;SDS011;55596;53.554;9.916;2023-08-17T08:20:07;9.23;;;5.00;;
17796;SDS011;55596;53.554;9.916;2023-08-17T08:22:34;9.80;;;5.50;;
17796;SDS011;55596;53.554;9.916;2023-08-17T08:25:01;13.23;;;5.47;;
17796;SDS011;55596;53.554;9.916;2023-08-17T08:27:28;7.73;;;5.40;;
17796;SDS011;55596;53.554;9.916;2023-08-17T08:29:56;14.37;;;5.73;;
17796;SDS011;55596;53.554;9.916;2023-08-17T08:32:23;16.63;;;6.43;;
17796;SDS011;55596;53.554;9.916;2023-08-17T08:34:52;9.70;;;5.17;;
17796;SDS011;55596;53.554;9.916;2023-08-17T08:37:19;12.27;;;5.57;;
17796;SDS011;55596;53.554;9.916;2023-08-17T08:39:49;9.27;;;5.17;;
17796;SDS011;55596;53.554;9.916;2023-08-17T08:42:17;11.90;;;4.70;;
17796;SDS011;55596;53.554;9.916;2023-08-17T08:44:44;7.03;;;4.33;;
17796;SDS011;55596;53.554;9.916;2023-08-17T08:47:11;8.23;;;4.47;;
17796;SDS011;55596;53.554;9.916;2023-08-17T08:49:38;7.90;;;4.23;;
17796;SDS011;55596;53.554;9.916;2023-08-17T08:52:08;9.37;;;3.53;;
17796;SDS011;55596;53.554;9.916;2023-08-17T08:54:36;6.67;;;3.40;;
17796;SDS011;55596;53.554;9.916;2023-08-17T08:57:06;8.00;;;3.47;;
17796;SDS011;55596;53.554;9.916;2023-08-17T08:59:35;6.50;;;3.27;;
17796;SDS011;55596;53.554;9.916;2023-08-17T09:02:09;7.57;;;3.13;;
17796;SDS011;55596;53.554;9.916;2023-08-17T09:04:37;5.60;;;3.30;;
17796;SDS011;55596;53.554;9.916;2023-08-17T09:07:04;6.90;;;3.63;;
17796;SDS011;55596;53.554;9.916;2023-08-17T09:09:33;6.60;;;3.60;;
17796;SDS011;55596;53.554;9.916;2023-08-17T09:12:00;6.07;;;3.30;;
17796;SDS011;55596;53.554;9.916;2023-08-17T09:14:28;5.50;;;3.20;;
17796;SDS011;55596;53.554;9.916;2023-08-17T09:16:55;9.93;;;4.03;;
17796;SDS011;55596;53.554;9.916;2023-08-17T09:19:23;5.03;;;3.20;;
17796;SDS011;55596;53.554;9.916;2023-08-17T09:21:51;6.80;;;3.40;;
17796;SDS011;55596;53.554;9.916;2023-08-17T09:24:18;4.87;;;3.23;;
17796;SDS011;55596;53.554;9.916;2023-08-17T09:26:47;8.57;;;3.33;;
17796;SDS011;55596;53.554;9.916;2023-08-17T09:29:17;4.73;;;3.13;;
17796;SDS011;55596;53.554;9.916;2023-08-17T09:31:45;8.37;;;3.30;;
17796;SDS011;55596;53.554;9.916;2023-08-17T09:34:13;4.10;;;3.00;;
17796;SDS011;55596;53.554;9.916;2023-08-17T09:36:41;3.87;;;2.83;;
17796;SDS011;55596;53.554;9.916;2023-08-17T09:39:09;4.63;;;2.50;;
17796;SDS011;55596;53.554;9.916;2023-08-17T09:41:39;4.00;;;2.93;;
17796;SDS011;55596;53.554;9.916;2023-08-17T09:44:09;7.23;;;2.73;;
17796;SDS011;55596;53.554;9.916;2023-08-17T09:46:36;5.70;;;2.80;;
17796;SDS011;55596;53.554;9.916;2023-08-17T09:49:03;4.87;;;2.50;;
17796;SDS011;55596;53.554;9.916;2023-08-17T09:51:31;5.97;;;2.60;;
17796;SDS011;55596;53.554;9.916;2023-08-17T09:53:59;5.60;;;2.47;;
17796;SDS011;55596;53.554;9.916;2023-08-17T09:56:26;5.20;;;2.63;;
17796;SDS011;55596;53.554;9.916;2023-08-17T09:58:54;5.57;;;2.30;;
17796;SDS011;55596;53.554;9.916;2023-08-17T10:01:23;6.23;;;2.03;;
17796;SDS011;55596;53.554;9.916;2023-08-17T10:03:50;4.97;;;2.20;;
17796;SDS011;55596;53.554;9.916;2023-08-17T10:06:20;2.57;;;1.67;;
17796;SDS011;55596;53.554;9.916;2023-08-17T10:08:49;2.23;;;1.90;;
17796;SDS011;55596;53.554;9.916;2023-08-17T10:11:18;4.83;;;1.77;;
17796;SDS011;55596;53.554;9.916;2023-08-17T10:13:46;3.17;;;2.10;;
17796;SDS011;55596;53.554;9.916;2023-08-17T10:16:16;4.40;;;2.17;;
17796;SDS011;55596;53.554;9.916;2023-08-17T10:18:49;3.87;;;1.73;;
17796;SDS011;55596;53.554;9.916;2023-08-17T10:21:18;3.37;;;1.90;;
17796;SDS011;55596;53.554;9.916;2023-08-17T10:23:45;4.30;;;1.47;;
17796;SDS011;55596;53.554;9.916;2023-08-17T10:26:13;4.87;;;1.50;;
17796;SDS011;55596;53.554;9.916;2023-08-17T10:28:41;6.83;;;1.83;;
17796;SDS011;55596;53.554;9.916;2023-08-17T10:31:08;2.27;;;1.67;;
17796;SDS011;55596;53.554;9.916;2023-08-17T10:33:36;3.93;;;1.93;;
17796;SDS011;55596;53.554;9.916;2023-08-17T10:36:08;5.40;;;1.87;;
17796;SDS011;55596;53.554;9.916;2023-08-17T10:38:35;2.77;;;1.90;;
17796;SDS011;55596;53.554;9.916;2023-08-17T10:41:08;3.30;;;1.77;;
17796;SDS011;55596;53.554;9.916;2023-08-17T10:43:52;5.07;;;1.67;;
17796;SDS011;55596;53.554;9.916;2023-08-17T10:46:20;3.97;;;2.00;;
17796;SDS011;55596;53.554;9.916;2023-08-17T10:48:47;6.40;;;1.93;;
17796;SDS011;55596;53.554;9.916;2023-08-17T10:51:16;3.10;;;1.80;;
17796;SDS011;55596;53.554;9.916;2023-08-17T10:53:50;5.80;;;2.83;;
17796;SDS011;55596;53.554;9.916;2023-08-17T10:56:19;3.57;;;1.60;;
17796;SDS011;55596;53.554;9.916;2023-08-17T10:58:47;3.20;;;1.90;;
17796;SDS011;55596;53.554;9.916;2023-08-17T11:01:30;3.97;;;1.50;;
17796;SDS011;55596;53.554;9.916;2023-08-17T11:04:08;2.50;;;1.63;;
17796;SDS011;55596;53.554;9.916;2023-08-17T11:06:38;3.67;;;2.10;;
17796;SDS011;55596;53.554;9.916;2023-08-17T11:09:06;2.10;;;1.57;;
17796;SDS011;55596;53.554;9.916;2023-08-17T11:11:34;2.63;;;1.73;;
17796;SDS011;55596;53.554;9.916;2023-08-17T11:14:01;3.90;;;1.43;;
17796;SDS011;55596;53.554;9.916;2023-08-17T11:16:28;2.33;;;1.70;;
17796;SDS011;55596;53.554;9.916;2023-08-17T11:18:56;3.83;;;2.00;;
17796;SDS011;55596;53.554;9.916;2023-08-17T11:21:24;3.33;;;2.33;;
17796;SDS011;55596;53.554;9.916;2023-08-17T11:23:53;3.17;;;2.40;;
17796;SDS011;55596;53.554;9.916;2023-08-17T11:26:22;3.80;;;2.33;;
17796;SDS011;55596;53.554;9.916;2023-08-17T11:28:49;5.60;;;2.40;;
17796;SDS011;55596;53.554;9.916;2023-08-17T11:31:16;6.20;;;2.60;;
17796;SDS011;55596;53.554;9.916;2023-08-17T11:33:43;4.33;;;2.60;;
17796;SDS011;55596;53.554;9.916;2023-08-17T11:36:11;5.10;;;3.00;;
17796;SDS011;55596;53.554;9.916;2023-08-17T11:38:39;5.80;;;3.50;;
17796;SDS011;55596;53.554;9.916;2023-08-17T11:41:08;4.37;;;3.10;;
17796;SDS011;55596;53.554;9.916;2023-08-17T11:43:36;5.10;;;3.23;;
17796;SDS011;55596;53.554;9.916;2023-08-17T11:46:03;4.00;;;2.90;;
17796;SDS011;55596;53.554;9.916;2023-08-17T11:48:31;3.67;;;2.67;;
17796;SDS011;55596;53.554;9.916;2023-08-17T11:50:59;3.83;;;3.03;;
17796;SDS011;55596;53.554;9.916;2023-08-17T11:53:32;5.23;;;3.50;;
17796;SDS011;55596;53.554;9.916;2023-08-17T11:56:00;4.50;;;3.27;;
17796;SDS011;55596;53.554;9.916;2023-08-17T11:58:39;6.30;;;3.50;;
17796;SDS011;55596;53.554;9.916;2023-08-17T12:01:08;5.03;;;3.43;;
17796;SDS011;55596;53.554;9.916;2023-08-17T12:03:36;5.43;;;3.70;;
17796;SDS011;55596;53.554;9.916;2023-08-17T12:06:04;9.80;;;3.97;;
17796;SDS011;55596;53.554;9.916;2023-08-17T12:08:31;8.37;;;3.90;;
17796;SDS011;55596;53.554;9.916;2023-08-17T12:10:58;7.27;;;3.53;;
17796;SDS011;55596;53.554;9.916;2023-08-17T12:13:29;14.90;;;8.70;;
17796;SDS011;55596;53.554;9.916;2023-08-17T12:15:58;6.93;;;4.33;;
17796;SDS011;55596;53.554;9.916;2023-08-17T12:18:25;6.80;;;4.47;;
17796;SDS011;55596;53.554;9.916;2023-08-17T12:20:52;6.97;;;4.60;;
17796;SDS011;55596;53.554;9.916;2023-08-17T12:23:20;11.70;;;5.70;;
17796;SDS011;55596;53.554;9.916;2023-08-17T12:25:51;12.87;;;6.10;;
17796;SDS011;55596;53.554;9.916;2023-08-17T12:28:19;12.33;;;5.17;;
17796;SDS011;55596;53.554;9.916;2023-08-17T12:30:46;9.53;;;6.07;;
17796;SDS011;55596;53.554;9.916;2023-08-17T12:33:15;7.77;;;5.67;;
17796;SDS011;55596;53.554;9.916;2023-08-17T12:35:42;6.73;;;5.07;;
17796;SDS011;55596;53.554;9.916;2023-08-17T12:38:09;7.87;;;5.10;;
17796;SDS011;55596;53.554;9.916;2023-08-17T12:40:37;12.20;;;5.53;;
17796;SDS011;55596;53.554;9.916;2023-08-17T12:43:04;11.50;;;4.90;;
17796;SDS011;55596;53.554;9.916;2023-08-17T12:45:31;8.20;;;5.00;;
17796;SDS011;55596;53.554;9.916;2023-08-17T12:47:59;7.07;;;4.50;;
17796;SDS011;55596;53.554;9.916;2023-08-17T12:50:27;6.57;;;3.60;;
17796;SDS011;55596;53.554;9.916;2023-08-17T12:52:54;7.40;;;4.37;;
17796;SDS011;55596;53.554;9.916;2023-08-17T12:55:22;5.77;;;3.47;;
17796;SDS011;55596;53.554;9.916;2023-08-17T12:57:49;5.83;;;2.60;;
17796;SDS011;55596;53.554;9.916;2023-08-17T13:00:16;3.20;;;2.40;;
17796;SDS011;55596;53.554;9.916;2023-08-17T13:02:43;4.33;;;2.80;;
17796;SDS011;55596;53.554;9.916;2023-08-17T13:05:14;6.00;;;3.00;;
17796;SDS011;55596;53.554;9.916;2023-08-17T13:07:42;4.77;;;3.43;;
17796;SDS011;55596;53.554;9.916;2023-08-17T13:10:10;8.50;;;4.50;;
17796;SDS011;55596;53.554;9.916;2023-08-17T13:12:37;9.43;;;3.60;;
17796;SDS011;55596;53.554;9.916;2023-08-17T13:15:04;8.17;;;3.90;;
17796;SDS011;55596;53.554;9.916;2023-08-17T13:17:32;6.97;;;4.00;;
17796;SDS011;55596;53.554;9.916;2023-08-17T13:19:59;8.17;;;3.57;;
17796;SDS011;55596;53.554;9.916;2023-08-17T13:22:26;3.33;;;3.03;;
17796;SDS011;55596;53.554;9.916;2023-08-17T13:24:54;6.30;;;3.30;;
17796;SDS011;55596;53.554;9.916;2023-08-17T13:27:22;5.67;;;3.20;;
17796;SDS011;55596;53.554;9.916;2023-08-17T13:29:49;4.60;;;3.10;;
17796;SDS011;55596;53.554;9.916;2023-08-17T13:32:16;3.30;;;2.10;;
17796;SDS011;55596;53.554;9.916;2023-08-17T13:34:43;2.40;;;1.90;;
17796;SDS011;55596;53.554;9.916;2023-08-17T13:37:11;2.60;;;1.60;;
17796;SDS011;55596;53.554;9.916;2023-08-17T13:39:38;1.30;;;1.20;;
17796;SDS011;55596;53.554;9.916;2023-08-17T13:42:07;1.67;;;1.13;;
17796;SDS011;55596;53.554;9.916;2023-08-17T13:44:34;2.50;;;1.20;;
17796;SDS011;55596;53.554;9.916;2023-08-17T13:47:01;1.20;;;1.10;;
17796;SDS011;55596;53.554;9.916;2023-08-17T13:49:29;2.13;;;1.30;;
17796;SDS011;55596;53.554;9.916;2023-08-17T13:51:56;1.80;;;1.07;;
17796;SDS011;55596;53.554;9.916;2023-08-17T13:54:23;1.47;;;1.23;;
17796;SDS011;55596;53.554;9.916;2023-08-17T13:56:50;1.33;;;1.03;;
17796;SDS011;55596;53.554;9.916;2023-08-17T13:59:19;1.30;;;1.13;;
17796;SDS011;55596;53.554;9.916;2023-08-17T14:01:46;1.20;;;1.10;;
17796;SDS011;55596;53.554;9.916;2023-08-17T14:04:13;3.13;;;1.43;;
17796;SDS011;55596;53.554;9.916;2023-08-17T14:06:42;1.93;;;1.43;;
17796;SDS011;55596;53.554;9.916;2023-08-17T14:09:09;1.47;;;1.30;;
17796;SDS011;55596;53.554;9.916;2023-08-17T14:11:37;1.53;;;1.00;;
17796;SDS011;55596;53.554;9.916;2023-08-17T14:14:04;2.53;;;1.27;;
17796;SDS011;55596;53.554;9.916;2023-08-17T14:16:32;1.67;;;1.00;;
17796;SDS011;55596;53.554;9.916;2023-08-17T14:18:59;1.43;;;0.83;;
17796;SDS011;55596;53.554;9.916;2023-08-17T14:21:27;0.80;;;0.80;;
17796;SDS011;55596;53.554;9.916;2023-08-17T14:23:54;1.40;;;0.90;;
17796;SDS011;55596;53.554;9.916;2023-08-17T14:26:21;1.50;;;1.10;;
17796;SDS011;55596;53.554;9.916;2023-08-17T14:28:48;2.17;;;1.07;;
17796;SDS011;55596;53.554;9.916;2023-08-17T14:31:15;1.60;;;1.10;;
17796;SDS011;55596;53.554;9.916;2023-08-17T14:33:44;3.27;;;1.40;;
17796;SDS011;55596;53.554;9.916;2023-08-17T14:36:12;1.53;;;1.43;;
17796;SDS011;55596;53.554;9.916;2023-08-17T14:38:40;1.30;;;1.20;;
17796;SDS011;55596;53.554;9.916;2023-08-17T14:41:07;1.43;;;1.00;;
17796;SDS011;55596;53.554;9.916;2023-08-17T14:43:34;1.63;;;1.00;;
17796;SDS011;55596;53.554;9.916;2023-08-17T14:46:01;2.47;;;1.20;;
17796;SDS011;55596;53.554;9.916;2023-08-17T14:48:29;1.00;;;0.90;;
17796;SDS011;55596;53.554;9.916;2023-08-17T14:50:57;2.10;;;0.90;;
17796;SDS011;55596;53.554;9.916;2023-08-17T14:53:24;1.97;;;0.97;;